Time;durP1;ratioP1;P1;durP2;ratioP2;P2;SDS_P1;SDS_P2;PMS_P1;PMS_P2;Temp;Humidity;BMP_temperature;BMP_pressure;BME280_temperature;BME280_humidity;BME280_pressure;Samples;Min_cycle;Max_cycle;Signal;HPM_P1;HPM_P2
2024/02/23 00:00:48;;;;;;;;;;;;;;;;;;5025315;28;20033;-78
2024/02/23 00:03:15;;;;;;;10.45;2.38;;;;;;;;;;5030266;28;19909;-79
2024/02/23 00:05:42;;;;;;;8.93;2.50;;;;;;;;;;5026302;28;20033;-78
2024/02/23 00:08:09;;;;;;;;;;;;;;;;;;5031033;28;20037;-78
2024/02/23 00:10:36;;;;;;;10.98;2.60;;;;;;;;;;5029202;28;19923;-78
2024/02/23 00:13:02;;;;;;;9.43;2.47;;;;;;;;;;5040532;28;20025;-78
2024/02/23 00:15:30;;;;;;;10.15;2.97;;;;;;;;;;5037451;28;20024;-78
2024/02/23 00:17:56;;;;;;;10.05;2.53;;;;;;;;;;5015036;28;20044;-78
2024/02/23 00:20:22;;;;;;;9.75;2.55;;;;;;;;;;5025869;28;20033;-78
2024/02/23 00:22:51;;;;;;;10.13;2.38;;;;;;;;;;5018314;28;20099;-78
2024/02/23 00:25:17;;;;;;;10.20;2.58;;;;;;;;;;5023310;28;20052;-79
2024/02/23 00:27:46;;;;;;;12.23;3.10;;;;;;;;;;5027138;28;20040;-79
2024/02/23 00:30:14;;;;;;;10.18;2.60;;;;;;;;;;5040258;28;20025;-79
2024/02/23 00:32:40;;;;;;;9.20;2.03;;;;;;;;;;5020694;28;20033;-79
2024/02/23 00:35:07;;;;;;;10.18;2.47;;;;;;;;;;5043707;28;20055;-78
2024/02/23 00:37:35;;;;;;;10.35;2.60;;;;;;;;;;5038845;28;20032;-79
2024/02/23 00:40:05;;;;;;;10.27;2.17;;;;;;;;;;5037173;28;20037;-78
2024/02/23 00:42:31;;;;;;;10.88;2.38;;;;;;;;;;5024747;28;20036;-78
2024/02/23 00:44:57;;;;;;;9.65;2.33;;;;;;;;;;5036922;28;20030;-80
2024/02/23 00:47:25;;;;;;;9.82;2.40;;;;;;;;;;5038870;28;20045;-79
2024/02/23 00:49:51;;;;;;;10.15;2.50;;;;;;;;;;5021778;28;20100;-79
2024/02/23 00:52:18;;;;;;;11.43;2.60;;;;;;;;;;5029377;28;20026;-78
2024/02/23 00:54:44;;;;;;;12.38;2.45;;;;;;;;;;5026863;28;20032;-79
2024/02/23 00:57:11;;;;;;;13.55;3.20;;;;;;;;;;5042861;28;20132;-79
2024/02/23 00:59:42;;;;;;;10.20;2.70;;;;;;;;;;5026629;28;20032;-80
2024/02/23 01:02:09;;;;;;;13.00;3.10;;;;;;;;;;5033900;28;20033;-79
2024/02/23 01:04:35;;;;;;;13.60;2.97;;;;;;;;;;5029261;28;20038;-79
2024/02/23 01:07:04;;;;;;;12.57;2.85;;;;;;;;;;5030947;28;20053;-79
2024/02/23 01:09:30;;;;;;;12.45;3.05;;;;;;;;;;5029837;28;20040;-79
2024/02/23 01:11:57;;;;;;;;;;;;;;;;;;5025399;28;20039;-78
2024/02/23 01:14:24;;;;;;;13.68;3.50;;;;;;;;;;5049707;28;19909;-79
2024/02/23 01:16:50;;;;;;;;;;;;;;;;;;5028074;28;20063;-79
2024/02/23 01:19:16;;;;;;;16.25;3.28;;;;;;;;;;5029361;28;20753;-77
2024/02/23 01:21:42;;;;;;;;;;;;;;;;;;5040048;28;20036;-78
2024/02/23 01:24:08;;;;;;;15.18;3.10;;;;;;;;;;5024011;28;19935;-78
2024/02/23 01:26:36;;;;;;;12.38;3.03;;;;;;;;;;5020994;28;21041;-78
2024/02/23 01:29:03;;;;;;;13.77;3.13;;;;;;;;;;5018032;28;20021;-79
2024/02/23 01:31:31;;;;;;;13.32;3.10;;;;;;;;;;5029178;28;20041;-79
2024/02/23 01:33:57;;;;;;;11.55;3.08;;;;;;;;;;5018604;28;20120;-79
2024/02/23 01:36:25;;;;;;;13.13;3.47;;;;;;;;;;5034977;28;20029;-78
2024/02/23 01:38:53;;;;;;;10.70;3.40;;;;;;;;;;5019367;28;20040;-79
2024/02/23 01:41:20;;;;;;;10.95;3.00;;;;;;;;;;5033394;28;20033;-78
2024/02/23 01:43:47;;;;;;;10.95;3.22;;;;;;;;;;5015126;28;20123;-79
2024/02/23 01:46:18;;;;;;;11.23;3.15;;;;;;;;;;5029291;28;20052;-78
2024/02/23 01:48:50;;;;;;;13.55;3.40;;;;;;;;;;5029016;28;20094;-78
2024/02/23 01:51:18;;;;;;;15.65;3.95;;;;;;;;;;5019789;28;20031;-79
2024/02/23 01:53:46;;;;;;;14.43;3.80;;;;;;;;;;5027782;28;20044;-78
2024/02/23 01:56:18;;;;;;;14.75;3.58;;;;;;;;;;5012242;28;20026;-78
2024/02/23 01:58:49;;;;;;;16.35;3.58;;;;;;;;;;5023639;28;20139;-77
2024/02/23 02:01:17;;;;;;;14.45;3.70;;;;;;;;;;5023223;28;20049;-78
2024/02/23 02:03:43;;;;;;;10.90;3.42;;;;;;;;;;5015166;28;20108;-77
2024/02/23 02:06:10;;;;;;;;;;;;;;;;;;5018929;28;20040;-77
2024/02/23 02:08:37;;;;;;;15.77;4.38;;;;;;;;;;5038185;28;19955;-79
2024/02/23 02:11:05;;;;;;;12.63;3.60;;;;;;;;;;5018041;28;20024;-79
2024/02/23 02:13:31;;;;;;;12.75;4.13;;;;;;;;;;5023793;28;20035;-79
2024/02/23 02:16:02;;;;;;;13.55;3.97;;;;;;;;;;5041113;28;20607;-79
2024/02/23 02:18:28;;;;;;;19.63;3.65;;;;;;;;;;5035081;28;20036;-79
2024/02/23 02:20:54;;;;;;;;;;;;;;;;;;5039746;28;20080;-79
2024/02/23 02:23:20;;;;;;;14.20;3.90;;;;;;;;;;5037957;28;20036;-80
2024/02/23 02:25:53;;;;;;;13.73;3.58;;;;;;;;;;5038520;28;20366;-79
2024/02/23 02:28:19;;;;;;;10.13;3.70;;;;;;;;;;5027683;28;20096;-79
2024/02/23 02:30:46;;;;;;;9.38;3.38;;;;;;;;;;5024514;28;20041;-79
2024/02/23 02:33:14;;;;;;;11.02;3.35;;;;;;;;;;5039207;28;20019;-79
2024/02/23 02:35:40;;;;;;;12.20;3.30;;;;;;;;;;5031536;28;20085;-79
2024/02/23 02:38:07;;;;;;;;;;;;;;;;;;5022589;28;20041;-79
2024/02/23 02:40:36;;;;;;;8.85;2.92;;;;;;;;;;5038319;28;19918;-77
2024/02/23 02:43:02;;;;;;;11.07;3.08;;;;;;;;;;5027780;28;20105;-79
2024/02/23 02:45:29;;;;;;;9.13;2.63;;;;;;;;;;5023079;28;20041;-80
2024/02/23 02:47:57;;;;;;;12.00;2.90;;;;;;;;;;5037362;28;20041;-78
2024/02/23 02:50:24;;;;;;;6.93;1.90;;;;;;;;;;5024602;28;20092;-80
2024/02/23 02:52:50;;;;;;;4.35;1.40;;;;;;;;;;5022203;28;20509;-77
2024/02/23 02:55:18;;;;;;;5.53;1.83;;;;;;;;;;5037005;28;20029;-78
2024/02/23 02:57:46;;;;;;;7.88;2.10;;;;;;;;;;5021039;28;20048;-78
2024/02/23 03:00:13;;;;;;;9.75;2.05;;;;;;;;;;5027565;28;20288;-78
2024/02/23 03:02:41;;;;;;;11.30;2.30;;;;;;;;;;5032289;28;20039;-78
2024/02/23 03:05:07;;;;;;;6.43;1.52;;;;;;;;;;5035539;28;20566;-79
2024/02/23 03:07:33;;;;;;;5.53;1.30;;;;;;;;;;5017979;28;20165;-78
2024/02/23 03:10:01;;;;;;;4.35;1.00;;;;;;;;;;5022370;28;22632;-78
2024/02/23 03:12:27;;;;;;;3.53;0.90;;;;;;;;;;5034505;28;20124;-78
2024/02/23 03:14:55;;;;;;;;;;;;;;;;;;5034966;28;20073;-78
2024/02/23 03:17:23;;;;;;;3.85;0.75;;;;;;;;;;5036941;28;20019;-78
2024/02/23 03:19:53;;;;;;;3.70;0.80;;;;;;;;;;5026688;28;20048;-78
2024/02/23 03:22:19;;;;;;;5.43;1.10;;;;;;;;;;5034580;28;20052;-77
2024/02/23 03:24:47;;;;;;;3.70;1.20;;;;;;;;;;5032931;28;20025;-78
2024/02/23 03:27:13;;;;;;;4.60;1.23;;;;;;;;;;5027026;28;20130;-78
2024/02/23 03:29:40;;;;;;;;;;;;;;;;;;5015829;28;20090;-78
2024/02/23 03:32:09;;;;;;;6.25;1.40;;;;;;;;;;5037373;28;19936;-78
2024/02/23 03:34:37;;;;;;;5.60;1.27;;;;;;;;;;5039133;28;20207;-77
2024/02/23 03:37:06;;;;;;;7.40;1.80;;;;;;;;;;5022971;28;20053;-78
2024/02/23 03:39:34;;;;;;;5.88;1.58;;;;;;;;;;5022193;28;20060;-78
2024/02/23 03:42:02;;;;;;;7.60;1.70;;;;;;;;;;5038356;28;20075;-78
2024/02/23 03:44:28;;;;;;;6.10;1.20;;;;;;;;;;5023996;28;20025;-78
2024/02/23 03:46:56;;;;;;;6.90;1.70;;;;;;;;;;5030458;28;20050;-78
2024/02/23 03:49:24;;;;;;;5.95;1.50;;;;;;;;;;5040589;28;20182;-78
2024/02/23 03:51:51;;;;;;;6.68;1.50;;;;;;;;;;5017197;28;20044;-78
2024/02/23 03:54:17;;;;;;;7.25;1.50;;;;;;;;;;5024359;28;20025;-78
2024/02/23 03:56:43;;;;;;;;;;;;;;;;;;5037479;28;20032;-79
2024/02/23 03:59:12;;;;;;;6.85;1.50;;;;;;;;;;5037263;28;19913;-78
2024/02/23 04:01:41;;;;;;;7.88;1.80;;;;;;;;;;5031669;28;20045;-79
2024/02/23 04:04:08;;;;;;;6.68;1.40;;;;;;;;;;5022211;28;20039;-77
2024/02/23 04:06:36;;;;;;;7.68;1.80;;;;;;;;;;5015954;28;20056;-78
2024/02/23 04:09:08;;;;;;;6.95;1.77;;;;;;;;;;5020113;28;20037;-77
2024/02/23 04:11:37;;;;;;;6.78;1.60;;;;;;;;;;5033093;28;20025;-77
2024/02/23 04:14:05;;;;;;;11.82;3.05;;;;;;;;;;5011463;28;20682;-78
2024/02/23 04:16:34;;;;;;;17.10;3.83;;;;;;;;;;5026187;28;20033;-78
2024/02/23 04:19:00;;;;;;;17.92;4.28;;;;;;;;;;5028776;28;20036;-78
2024/02/23 04:21:27;;;;;;;18.80;4.20;;;;;;;;;;5031887;28;20669;-77
2024/02/23 04:23:54;;;;;;;17.05;3.90;;;;;;;;;;5015056;28;20048;-77
2024/02/23 04:26:20;;;;;;;20.77;4.72;;;;;;;;;;5037944;28;20025;-77
2024/02/23 04:28:46;;;;;;;;;;;;;;;;;;5039426;28;20048;-77
2024/02/23 04:31:12;;;;;;;17.10;4.13;;;;;;;;;;5035580;28;19912;-78
2024/02/23 04:33:38;;;;;;;;;;;;;;;;;;5031290;28;20040;-77
2024/02/23 04:36:05;;;;;;;17.60;4.28;;;;;;;;;;5038439;28;19916;-79
2024/02/23 04:38:32;;;;;;;18.60;4.63;;;;;;;;;;5017195;28;20029;-78
2024/02/23 04:40:59;;;;;;;16.10;3.85;;;;;;;;;;5011367;28;20029;-77
2024/02/23 04:43:26;;;;;;;15.07;4.45;;;;;;;;;;5013010;28;20036;-78
2024/02/23 04:45:51;;;;;;;;;;;;;;;;;;5028573;28;20033;-78
2024/02/23 04:48:18;;;;;;;20.45;4.97;;;;;;;;;;5036737;28;19924;-78
2024/02/23 04:50:44;;;;;;;18.98;4.90;;;;;;;;;;5035641;28;20036;-77
2024/02/23 04:53:10;;;;;;;17.80;4.68;;;;;;;;;;5027882;28;20071;-77
2024/02/23 04:55:36;;;;;;;;;;;;;;;;;;5037944;28;20029;-78
2024/02/23 04:58:03;;;;;;;20.80;4.63;;;;;;;;;;5032834;28;19975;-77
2024/02/23 05:00:33;;;;;;;20.10;5.05;;;;;;;;;;5037464;28;20674;-77
2024/02/23 05:02:59;;;;;;;18.50;4.68;;;;;;;;;;5034281;28;20033;-77
2024/02/23 05:05:27;;;;;;;19.60;4.80;;;;;;;;;;5030106;28;20035;-77
2024/02/23 05:07:53;;;;;;;18.00;4.80;;;;;;;;;;5016911;28;20029;-77
2024/02/23 05:10:19;;;;;;;21.67;5.30;;;;;;;;;;5016681;28;20028;-77
2024/02/23 05:12:45;;;;;;;20.13;5.43;;;;;;;;;;5016458;28;20037;-77
2024/02/23 05:15:11;;;;;;;17.52;4.88;;;;;;;;;;5035389;28;20085;-79
2024/02/23 05:17:37;;;;;;;;;;;;;;;;;;5022916;28;20055;-78
2024/02/23 05:20:10;;;;;;;19.02;5.20;;;;;;;;;;5042047;28;20297;-78
2024/02/23 05:22:37;;;;;;;16.88;4.32;;;;;;;;;;5044938;28;20028;-77
2024/02/23 05:25:07;;;;;;;20.77;5.35;;;;;;;;;;5045141;28;20032;-77
2024/02/23 05:27:33;;;;;;;17.40;4.88;;;;;;;;;;5013065;28;20029;-78
2024/02/23 05:30:00;;;;;;;19.45;5.18;;;;;;;;;;5029517;28;20024;-78
2024/02/23 05:32:28;;;;;;;15.98;4.00;;;;;;;;;;5017749;28;20033;-78
2024/02/23 05:34:56;;;;;;;19.13;4.85;;;;;;;;;;4998065;28;20032;-78
2024/02/23 05:37:26;;;;;;;18.83;5.03;;;;;;;;;;5027861;28;20033;-79
2024/02/23 05:39:54;;;;;;;16.30;4.57;;;;;;;;;;5040694;28;20040;-79
2024/02/23 05:42:20;;;;;;;19.13;4.78;;;;;;;;;;5025380;28;20037;-78
2024/02/23 05:44:48;;;;;;;21.83;5.38;;;;;;;;;;5035372;28;20024;-77
2024/02/23 05:47:15;;;;;;;17.25;4.45;;;;;;;;;;5013956;28;20041;-78
2024/02/23 05:49:43;;;;;;;16.33;4.20;;;;;;;;;;5014644;28;20041;-78
2024/02/23 05:52:09;;;;;;;16.95;4.35;;;;;;;;;;5020012;28;20040;-79
2024/02/23 05:54:38;;;;;;;19.25;4.55;;;;;;;;;;5025987;28;20029;-80
2024/02/23 05:57:14;;;;;;;16.05;4.60;;;;;;;;;;5015866;28;20034;-78
2024/02/23 05:59:42;;;;;;;13.70;3.75;;;;;;;;;;5006022;28;20034;-78
2024/02/23 06:02:08;;;;;;;17.73;4.30;;;;;;;;;;5007836;28;20029;-78
2024/02/23 06:04:34;;;;;;;18.70;4.20;;;;;;;;;;5010546;28;20040;-78
2024/02/23 06:07:00;;;;;;;16.67;4.03;;;;;;;;;;5001485;28;20056;-78
2024/02/23 06:09:27;;;;;;;16.15;3.85;;;;;;;;;;5002366;28;20419;-79
2024/02/23 06:11:56;;;;;;;16.23;3.92;;;;;;;;;;5004631;28;20099;-79
2024/02/23 06:14:23;;;;;;;13.77;3.80;;;;;;;;;;5006421;28;20686;-78
2024/02/23 06:16:49;;;;;;;12.45;3.40;;;;;;;;;;5008019;28;20041;-77
2024/02/23 06:19:16;;;;;;;13.15;3.30;;;;;;;;;;4999359;28;20040;-79
2024/02/23 06:21:42;;;;;;;11.88;3.22;;;;;;;;;;5013853;28;20038;-79
2024/02/23 06:24:11;;;;;;;12.65;3.60;;;;;;;;;;5018694;28;20033;-78
2024/02/23 06:26:37;;;;;;;11.43;2.75;;;;;;;;;;5018133;28;20030;-78
2024/02/23 06:29:08;;;;;;;9.95;2.40;;;;;;;;;;5020524;28;20022;-78
2024/02/23 06:31:35;;;;;;;11.88;2.80;;;;;;;;;;5021738;28;20050;-80
2024/02/23 06:34:01;;;;;;;;;;;;;;;;;;5026506;28;20018;-78
2024/02/23 06:36:28;;;;;;;12.52;2.88;;;;;;;;;;5026012;28;19910;-79
2024/02/23 06:38:56;;;;;;;16.67;3.63;;;;;;;;;;5016153;28;20030;-79
2024/02/23 06:41:23;;;;;;;10.65;2.55;;;;;;;;;;5012204;28;20042;-78
2024/02/23 06:43:52;;;;;;;11.57;3.00;;;;;;;;;;5017688;28;20033;-79
2024/02/23 06:46:22;;;;;;;10.02;2.65;;;;;;;;;;4997498;28;20057;-79
2024/02/23 06:48:48;;;;;;;9.57;2.40;;;;;;;;;;5018238;28;20049;-79
2024/02/23 06:51:16;;;;;;;8.85;2.15;;;;;;;;;;5027997;28;20078;-78
2024/02/23 06:53:43;;;;;;;9.75;2.42;;;;;;;;;;5025956;28;20584;-79
2024/02/23 06:56:12;;;;;;;8.52;2.30;;;;;;;;;;5012512;28;20029;-79
2024/02/23 06:58:41;;;;;;;8.18;1.90;;;;;;;;;;5016004;28;20037;-78
2024/02/23 07:01:11;;;;;;;8.85;2.20;;;;;;;;;;5025288;28;20034;-78
2024/02/23 07:03:40;;;;;;;7.13;1.70;;;;;;;;;;5027466;28;20136;-78
2024/02/23 07:06:10;;;;;;;7.38;1.70;;;;;;;;;;4998953;28;20033;-78
2024/02/23 07:08:38;;;;;;;8.38;2.17;;;;;;;;;;5008127;28;20025;-78
2024/02/23 07:11:05;;;;;;;8.98;2.17;;;;;;;;;;5009273;28;20029;-79
2024/02/23 07:13:38;;;;;;;8.73;2.00;;;;;;;;;;5022873;28;20066;-77
2024/02/23 07:16:04;;;;;;;9.82;2.20;;;;;;;;;;5020884;28;20449;-79
2024/02/23 07:18:30;;;;;;;10.40;2.47;;;;;;;;;;5020561;28;20025;-78
2024/02/23 07:20:57;;;;;;;9.45;2.30;;;;;;;;;;5013439;28;20042;-79
2024/02/23 07:23:25;;;;;;;8.82;2.20;;;;;;;;;;5020568;28;20045;-80
2024/02/23 07:25:51;;;;;;;8.13;2.25;;;;;;;;;;5010084;28;20044;-79
2024/02/23 07:28:20;;;;;;;8.07;2.28;;;;;;;;;;5011771;28;20025;-81
2024/02/23 07:30:47;;;;;;;9.27;2.03;;;;;;;;;;5016136;28;20036;-77
2024/02/23 07:33:13;;;;;;;8.48;2.13;;;;;;;;;;5010528;28;20156;-78
2024/02/23 07:35:42;;;;;;;9.35;2.00;;;;;;;;;;5011713;28;20809;-79
2024/02/23 07:38:10;;;;;;;8.93;2.40;;;;;;;;;;5014935;28;20037;-78
2024/02/23 07:40:38;;;;;;;8.90;2.40;;;;;;;;;;5012035;28;20153;-80
2024/02/23 07:43:07;;;;;;;8.32;2.20;;;;;;;;;;5010526;28;20115;-80
2024/02/23 07:45:35;;;;;;;9.05;2.03;;;;;;;;;;5019333;28;20108;-80
2024/02/23 07:48:06;;;;;;;8.20;1.83;;;;;;;;;;5033287;28;20052;-80
2024/02/23 07:50:41;;;;;;;8.43;2.25;;;;;;;;;;5024933;28;20040;-78
2024/02/23 07:53:07;;;;;;;9.50;2.22;;;;;;;;;;5009754;28;20083;-78
2024/02/23 07:55:34;;;;;;;10.05;2.60;;;;;;;;;;5041709;28;20079;-79
2024/02/23 07:58:01;;;;;;;8.35;2.00;;;;;;;;;;5019905;28;21067;-78
2024/02/23 08:00:28;;;;;;;9.43;2.10;;;;;;;;;;5024771;28;20037;-79
2024/02/23 08:03:00;;;;;;;9.85;2.60;;;;;;;;;;5025699;28;20099;-80
2024/02/23 08:05:26;;;;;;;7.93;2.10;;;;;;;;;;5028486;28;20052;-79
2024/02/23 08:07:52;;;;;;;9.10;2.10;;;;;;;;;;5043621;28;20033;-78
2024/02/23 08:10:25;;;;;;;9.15;2.25;;;;;;;;;;5042615;28;20143;-79
2024/02/23 08:12:53;;;;;;;9.88;2.38;;;;;;;;;;5022409;28;20063;-79
2024/02/23 08:15:19;;;;;;;10.90;2.53;;;;;;;;;;5023722;28;20025;-80
2024/02/23 08:17:46;;;;;;;10.48;2.83;;;;;;;;;;5025568;28;20045;-80
2024/02/23 08:20:12;;;;;;;10.63;2.67;;;;;;;;;;5004479;28;20053;-79
2024/02/23 08:22:40;;;;;;;;;;;;;;;;;;5001375;28;20037;-78
2024/02/23 08:25:09;;;;;;;10.65;2.63;;;;;;;;;;5036593;28;20807;-79
2024/02/23 08:27:35;;;;;;;12.02;2.63;;;;;;;;;;5023258;28;20041;-79
2024/02/23 08:30:01;;;;;;;10.88;2.50;;;;;;;;;;5017692;28;20455;-79
2024/02/23 08:32:28;;;;;;;15.52;3.03;;;;;;;;;;5035918;28;20026;-80
2024/02/23 08:34:59;;;;;;;14.80;2.60;;;;;;;;;;5015579;28;20509;-80
2024/02/23 08:37:27;;;;;;;10.82;2.67;;;;;;;;;;5020452;28;20039;-80
2024/02/23 08:39:54;;;;;;;10.50;2.60;;;;;;;;;;5032205;28;20037;-79
2024/02/23 08:42:20;;;;;;;10.43;2.28;;;;;;;;;;5035060;28;20041;-79
2024/02/23 08:44:46;;;;;;;;;;;;;;;;;;5028019;28;20063;-78
2024/02/23 08:47:13;;;;;;;11.52;2.83;;;;;;;;;;5008260;28;19925;-78
2024/02/23 08:49:41;;;;;;;10.55;2.47;;;;;;;;;;4999960;28;20046;-79
2024/02/23 08:52:09;;;;;;;11.38;2.88;;;;;;;;;;5004648;28;20026;-78
2024/02/23 08:54:35;;;;;;;13.70;3.08;;;;;;;;;;5012668;28;20285;-76
2024/02/23 08:57:01;;;;;;;;;;;;;;;;;;5009271;28;20037;-77
2024/02/23 08:59:29;;;;;;;9.02;2.13;;;;;;;;;;5013873;28;19920;-75
2024/02/23 09:01:55;;;;;;;;;;;;;;;;;;5012463;28;20040;-78
2024/02/23 09:04:23;;;;;;;10.30;2.13;;;;;;;;;;5004879;28;19917;-76
2024/02/23 09:06:51;;;;;;;9.23;2.38;;;;;;;;;;5002361;28;20045;-76
2024/02/23 09:09:17;;;;;;;9.25;2.47;;;;;;;;;;5000260;28;20040;-77
2024/02/23 09:11:44;;;;;;;11.13;2.80;;;;;;;;;;5005173;28;20087;-76
2024/02/23 09:14:10;;;;;;;10.27;2.13;;;;;;;;;;5005680;28;20117;-77
2024/02/23 09:16:36;;;;;;;;;;;;;;;;;;5002451;28;20045;-77
2024/02/23 09:19:02;;;;;;;12.07;2.50;;;;;;;;;;5002532;28;20293;-76
2024/02/23 09:21:28;;;;;;;9.00;1.85;;;;;;;;;;5009557;28;20048;-77
2024/02/23 09:23:54;;;;;;;;;;;;;;;;;;5005193;28;20026;-76
2024/02/23 09:26:20;;;;;;;10.07;2.22;;;;;;;;;;5000963;28;19920;-77
2024/02/23 09:28:47;;;;;;;10.70;2.75;;;;;;;;;;5008766;28;20030;-78
2024/02/23 09:31:14;;;;;;;10.48;2.35;;;;;;;;;;5009062;28;20030;-78
2024/02/23 09:33:41;;;;;;;8.85;1.90;;;;;;;;;;5004130;28;20025;-76
2024/02/23 09:36:09;;;;;;;10.68;2.25;;;;;;;;;;5000919;28;20171;-76
2024/02/23 09:38:39;;;;;;;8.98;1.73;;;;;;;;;;5006800;28;20042;-76
2024/02/23 09:41:06;;;;;;;10.10;1.95;;;;;;;;;;5005294;28;20038;-76
2024/02/23 09:43:35;;;;;;;10.05;1.85;;;;;;;;;;5007626;28;20042;-77
2024/02/23 09:46:01;;;;;;;8.65;1.50;;;;;;;;;;4990883;28;20042;-78
2024/02/23 09:48:33;;;;;;;9.70;1.95;;;;;;;;;;5022200;28;20069;-76
2024/02/23 09:51:01;;;;;;;9.20;1.90;;;;;;;;;;5023990;28;20029;-77
2024/02/23 09:53:29;;;;;;;9.45;1.85;;;;;;;;;;5026644;28;20045;-77
2024/02/23 09:55:55;;;;;;;10.13;2.10;;;;;;;;;;5013080;28;20737;-76
2024/02/23 09:58:24;;;;;;;8.02;1.80;;;;;;;;;;5026936;28;20065;-77
2024/02/23 10:00:51;;;;;;;6.88;1.90;;;;;;;;;;5009623;28;20037;-76
2024/02/23 10:03:18;;;;;;;8.50;1.98;;;;;;;;;;5013579;28;20623;-77
2024/02/23 10:05:46;;;;;;;11.32;1.90;;;;;;;;;;5004397;28;20549;-77
2024/02/23 10:08:14;;;;;;;8.05;1.67;;;;;;;;;;5008301;28;20532;-76
2024/02/23 10:10:41;;;;;;;7.22;1.60;;;;;;;;;;5003449;28;20032;-76
2024/02/23 10:13:09;;;;;;;9.00;2.10;;;;;;;;;;5019519;28;20033;-78
2024/02/23 10:15:37;;;;;;;8.50;1.90;;;;;;;;;;5019279;28;20056;-78
2024/02/23 10:18:05;;;;;;;14.35;2.08;;;;;;;;;;5009010;28;20045;-80
2024/02/23 10:20:32;;;;;;;11.93;2.00;;;;;;;;;;5025589;28;20091;-80
2024/02/23 10:23:00;;;;;;;8.43;2.05;;;;;;;;;;5033295;28;20044;-79
2024/02/23 10:25:29;;;;;;;7.82;2.22;;;;;;;;;;5033329;28;20151;-79
2024/02/23 10:27:59;;;;;;;12.90;3.22;;;;;;;;;;5030013;28;20160;-79
2024/02/23 10:30:27;;;;;;;9.13;2.25;;;;;;;;;;5016171;28;20092;-79
2024/02/23 10:32:55;;;;;;;7.70;2.10;;;;;;;;;;5003830;28;20025;-79
2024/02/23 10:35:24;;;;;;;7.68;1.77;;;;;;;;;;5023889;28;20224;-79
2024/02/23 10:37:51;;;;;;;10.93;1.80;;;;;;;;;;4999041;28;20043;-79
2024/02/23 10:40:18;;;;;;;7.05;1.55;;;;;;;;;;5028700;28;20040;-79
2024/02/23 10:42:51;;;;;;;8.05;1.50;;;;;;;;;;4999040;28;20063;-79
2024/02/23 10:45:18;;;;;;;7.35;1.70;;;;;;;;;;5027935;28;20025;-79
2024/02/23 10:47:46;;;;;;;8.20;2.33;;;;;;;;;;5030447;28;20064;-78
2024/02/23 10:50:14;;;;;;;6.13;1.40;;;;;;;;;;5002791;28;20057;-79
2024/02/23 10:52:44;;;;;;;8.73;1.70;;;;;;;;;;5017766;28;20564;-78
2024/02/23 10:55:12;;;;;;;7.95;1.73;;;;;;;;;;5012538;28;20522;-78
2024/02/23 10:57:40;;;;;;;12.05;1.80;;;;;;;;;;5010354;28;20480;-79
2024/02/23 11:00:11;;;;;;;9.93;1.55;;;;;;;;;;5009963;28;20119;-79
2024/02/23 11:02:42;;;;;;;7.07;1.40;;;;;;;;;;5022606;28;20595;-78
2024/02/23 11:05:12;;;;;;;11.15;1.63;;;;;;;;;;5014401;28;20052;-79
2024/02/23 11:07:42;;;;;;;8.77;2.00;;;;;;;;;;5007656;28;20045;-78
2024/02/23 11:10:11;;;;;;;7.57;1.77;;;;;;;;;;5000986;28;20045;-79
2024/02/23 11:12:37;;;;;;;7.40;1.70;;;;;;;;;;5005287;28;20754;-78
2024/02/23 11:15:05;;;;;;;7.80;1.40;;;;;;;;;;5008758;28;20064;-78
2024/02/23 11:17:32;;;;;;;5.85;1.45;;;;;;;;;;5011801;28;20032;-79
2024/02/23 11:20:04;;;;;;;6.25;1.40;;;;;;;;;;5010071;28;20029;-78
2024/02/23 11:22:32;;;;;;;7.60;1.55;;;;;;;;;;5030127;28;20028;-78
2024/02/23 11:25:06;;;;;;;8.48;1.80;;;;;;;;;;5029131;28;20075;-78
2024/02/23 11:27:36;;;;;;;6.38;1.35;;;;;;;;;;5017520;28;20036;-78
2024/02/23 11:30:12;;;;;;;7.22;1.67;;;;;;;;;;5014757;28;20036;-78
2024/02/23 11:32:54;;;;;;;7.53;1.40;;;;;;;;;;5019248;28;20129;-79
2024/02/23 11:35:27;;;;;;;7.47;1.52;;;;;;;;;;5018232;28;20475;-78
2024/02/23 11:38:06;;;;;;;8.77;1.30;;;;;;;;;;5014029;28;20510;-78
2024/02/23 11:40:33;;;;;;;6.90;1.58;;;;;;;;;;5016470;28;20098;-78
2024/02/23 11:43:00;;;;;;;8.93;1.65;;;;;;;;;;5019744;28;20029;-77
2024/02/23 11:45:29;;;;;;;8.23;1.80;;;;;;;;;;5016830;28;20037;-78
2024/02/23 11:47:57;;;;;;;7.97;1.55;;;;;;;;;;5013030;28;20115;-78
2024/02/23 11:50:23;;;;;;;4.90;1.10;;;;;;;;;;5014606;28;20030;-77
2024/02/23 11:53:07;;;;;;;8.68;1.58;;;;;;;;;;5010577;28;20026;-78
2024/02/23 11:55:34;;;;;;;5.68;1.20;;;;;;;;;;5018714;28;20041;-77
2024/02/23 11:58:02;;;;;;;8.75;1.38;;;;;;;;;;5009282;28;20493;-77
2024/02/23 12:00:32;;;;;;;8.48;1.70;;;;;;;;;;5018437;28;20038;-77
2024/02/23 12:03:01;;;;;;;7.20;1.60;;;;;;;;;;5014254;28;20033;-79
2024/02/23 12:05:28;;;;;;;7.60;1.60;;;;;;;;;;5010949;28;20057;-78
2024/02/23 12:07:54;;;;;;;8.23;1.80;;;;;;;;;;5013411;28;20133;-78
2024/02/23 12:10:21;;;;;;;7.82;1.92;;;;;;;;;;5018674;28;20025;-78
2024/02/23 12:12:49;;;;;;;9.90;1.92;;;;;;;;;;5014170;28;20033;-78
2024/02/23 12:15:20;;;;;;;7.07;1.80;;;;;;;;;;5008197;28;20108;-78
2024/02/23 12:17:51;;;;;;;7.45;1.40;;;;;;;;;;4996783;28;20132;-78
2024/02/23 12:20:17;;;;;;;7.55;1.60;;;;;;;;;;5003737;28;20541;-79
2024/02/23 12:22:44;;;;;;;7.45;1.40;;;;;;;;;;5008741;28;20017;-78
2024/02/23 12:25:15;;;;;;;8.40;1.75;;;;;;;;;;5011501;28;20030;-78
2024/02/23 12:27:41;;;;;;;10.02;2.20;;;;;;;;;;5006756;28;20030;-78
2024/02/23 12:30:14;;;;;;;7.95;1.60;;;;;;;;;;5011182;28;20397;-78
2024/02/23 12:32:43;;;;;;;7.45;1.20;;;;;;;;;;4992330;28;20057;-77
2024/02/23 12:35:12;;;;;;;6.15;1.40;;;;;;;;;;5004810;28;20021;-78
2024/02/23 12:37:39;;;;;;;9.20;1.60;;;;;;;;;;5011188;28;20098;-78
2024/02/23 12:40:05;;;;;;;6.13;1.30;;;;;;;;;;5013479;28;20033;-78
2024/02/23 12:42:33;;;;;;;7.72;1.75;;;;;;;;;;5009951;28;20040;-78
2024/02/23 12:44:59;;;;;;;6.00;1.40;;;;;;;;;;5004606;28;20038;-78
2024/02/23 12:47:25;;;;;;;6.72;1.42;;;;;;;;;;5008517;28;20069;-79
2024/02/23 12:49:51;;;;;;;7.13;1.50;;;;;;;;;;5008106;28;20029;-78
2024/02/23 12:52:17;;;;;;;6.30;1.50;;;;;;;;;;5010326;28;20725;-78
2024/02/23 12:54:45;;;;;;;6.63;1.08;;;;;;;;;;5013818;28;20095;-78
2024/02/23 12:57:12;;;;;;;8.60;1.63;;;;;;;;;;5026640;28;20029;-78
2024/02/23 12:59:40;;;;;;;6.28;1.50;;;;;;;;;;5014447;28;20074;-78
2024/02/23 13:02:09;;;;;;;8.77;1.52;;;;;;;;;;5023473;28;20060;-78
2024/02/23 13:04:35;;;;;;;6.68;1.60;;;;;;;;;;5021430;28;20092;-79
2024/02/23 13:07:04;;;;;;;7.55;1.20;;;;;;;;;;5005277;28;20033;-79
2024/02/23 13:09:31;;;;;;;7.22;1.58;;;;;;;;;;5019006;28;20025;-77
2024/02/23 13:12:01;;;;;;;5.05;1.30;;;;;;;;;;5005167;28;20826;-78
2024/02/23 13:14:27;;;;;;;7.60;1.30;;;;;;;;;;5005982;28;20098;-78
2024/02/23 13:16:53;;;;;;;6.45;1.48;;;;;;;;;;5008489;28;20145;-78
2024/02/23 13:19:20;;;;;;;6.63;1.77;;;;;;;;;;5021683;28;20037;-78
2024/02/23 13:21:47;;;;;;;5.63;1.67;;;;;;;;;;5023154;28;20045;-77
2024/02/23 13:24:16;;;;;;;6.13;1.35;;;;;;;;;;5023322;28;20029;-77
2024/02/23 13:26:42;;;;;;;7.82;1.75;;;;;;;;;;5018802;28;20112;-78
2024/02/23 13:29:09;;;;;;;3.97;0.80;;;;;;;;;;5027650;28;20113;-78
2024/02/23 13:31:38;;;;;;;5.07;1.17;;;;;;;;;;5007531;28;20056;-77
2024/02/23 13:34:05;;;;;;;6.80;1.40;;;;;;;;;;5001746;28;20190;-78
2024/02/23 13:36:31;;;;;;;6.22;1.38;;;;;;;;;;5005485;28;20042;-78
2024/02/23 13:38:58;;;;;;;5.47;1.48;;;;;;;;;;5019987;28;20033;-77
2024/02/23 13:41:26;;;;;;;7.85;2.05;;;;;;;;;;5012757;28;20036;-78
2024/02/23 13:43:53;;;;;;;5.50;1.67;;;;;;;;;;5005255;28;20434;-78
2024/02/23 13:46:20;;;;;;;7.95;1.30;;;;;;;;;;5029109;28;20696;-78
2024/02/23 13:48:51;;;;;;;5.22;1.48;;;;;;;;;;5021387;28;20029;-79
2024/02/23 13:51:19;;;;;;;7.78;1.70;;;;;;;;;;5010988;28;20029;-78
2024/02/23 13:53:45;;;;;;;5.43;1.10;;;;;;;;;;5022508;28;20052;-78
2024/02/23 13:56:11;;;;;;;4.00;1.10;;;;;;;;;;5009849;28;20055;-77
2024/02/23 13:58:39;;;;;;;2.95;0.50;;;;;;;;;;5012920;28;20084;-77
2024/02/23 14:01:06;;;;;;;4.63;0.80;;;;;;;;;;5018693;28;20115;-77
2024/02/23 14:03:34;;;;;;;2.95;0.60;;;;;;;;;;5008560;28;20036;-77
2024/02/23 14:06:01;;;;;;;6.30;1.70;;;;;;;;;;5022708;28;20800;-77
2024/02/23 14:08:28;;;;;;;4.22;1.00;;;;;;;;;;5009917;28;20057;-77
2024/02/23 14:10:54;;;;;;;5.50;1.48;;;;;;;;;;5004854;28;20040;-77
2024/02/23 14:13:20;;;;;;;5.68;1.55;;;;;;;;;;5008212;28;20496;-76
2024/02/23 14:15:51;;;;;;;3.88;0.80;;;;;;;;;;5027051;28;20029;-79
2024/02/23 14:18:18;;;;;;;5.25;1.40;;;;;;;;;;5012865;28;20068;-76
2024/02/23 14:20:47;;;;;;;4.30;1.35;;;;;;;;;;5012989;28;20025;-77
2024/02/23 14:23:15;;;;;;;5.15;1.50;;;;;;;;;;5014247;28;20440;-79
2024/02/23 14:25:41;;;;;;;4.25;1.20;;;;;;;;;;5013195;28;20064;-77
2024/02/23 14:28:11;;;;;;;5.78;1.65;;;;;;;;;;5022412;28;20048;-78
2024/02/23 14:30:40;;;;;;;6.68;1.90;;;;;;;;;;5021410;28;20068;-77
2024/02/23 14:33:08;;;;;;;6.32;1.30;;;;;;;;;;5009653;28;20047;-78
2024/02/23 14:35:34;;;;;;;7.75;2.72;;;;;;;;;;5013065;28;20552;-79
2024/02/23 14:38:00;;;;;;;7.93;2.55;;;;;;;;;;5008581;28;21339;-79
2024/02/23 14:40:26;;;;;;;5.43;1.55;;;;;;;;;;5011289;28;20317;-78
2024/02/23 14:42:53;;;;;;;8.25;2.70;;;;;;;;;;5005868;28;20044;-77
2024/02/23 14:45:23;;;;;;;5.70;1.77;;;;;;;;;;5022962;28;20045;-76
2024/02/23 14:47:50;;;;;;;8.10;3.00;;;;;;;;;;5009066;28;20501;-79